sensor_id;sensor_type;location;lat;lon;timestamp;pressure;altitude;pressure_sealevel;temperature;humidity
19600;BME280;9947;57.722;12.012;2023-02-18T00:00:42;99220.41;;;5.01;100.00
19600;BME280;9947;57.722;12.012;2023-02-18T00:03:15;99230.28;;;5.01;100.00
19600;BME280;9947;57.722;12.012;2023-02-18T00:05:42;99229.78;;;4.95;100.00
19600;BME280;9947;57.722;12.012;2023-02-18T00:08:15;99251.09;;;4.97;100.00
19600;BME280;9947;57.722;12.012;2023-02-18T00:10:43;99252.91;;;4.97;100.00
19600;BME280;9947;57.722;12.012;2023-02-18T00:13:17;99254.88;;;4.94;100.00
19600;BME280;9947;57.722;12.012;2023-02-18T00:15:51;99265.91;;;4.90;100.00
19600;BME280;9947;57.722;12.012;2023-02-18T00:18:24;99277.31;;;4.81;100.00
19600;BME280;9947;57.722;12.012;2023-02-18T00:20:51;99276.13;;;4.85;100.00
19600;BME280;9947;57.722;12.012;2023-02-18T00:23:32;99286.34;;;4.80;100.00
19600;BME280;9947;57.722;12.012;2023-02-18T00:26:10;99294.13;;;4.83;100.00
19600;BME280;9947;57.722;12.012;2023-02-18T00:28:37;99307.03;;;4.89;100.00
19600;BME280;9947;57.722;12.012;2023-02-18T00:31:15;99323.56;;;4.83;100.00
19600;BME280;9947;57.722;12.012;2023-02-18T00:33:42;99319.03;;;4.72;100.00
19600;BME280;9947;57.722;12.012;2023-02-18T00:36:18;99319.91;;;4.73;100.00
19600;BME280;9947;57.722;12.012;2023-02-18T00:38:46;99327.06;;;4.72;100.00
19600;BME280;9947;57.722;12.012;2023-02-18T00:41:23;99329.56;;;4.62;100.00
19600;BME280;9947;57.722;12.012;2023-02-18T00:43:57;99346.59;;;4.61;100.00
19600;BME280;9947;57.722;12.012;2023-02-18T00:46:24;99339.06;;;4.67;100.00
19600;BME280;9947;57.722;12.012;2023-02-18T00:48:58;99361.44;;;4.65;100.00
19600;BME280;9947;57.722;12.012;2023-02-18T00:51:32;99368.97;;;4.60;100.00
19600;BME280;9947;57.722;12.012;2023-02-18T00:53:59;99376.03;;;4.61;100.00
19600;BME280;9947;57.722;12.012;2023-02-18T00:56:34;99395.97;;;4.57;100.00
19600;BME280;9947;57.722;12.012;2023-02-18T00:59:09;99386.69;;;4.50;100.00
19600;BME280;9947;57.722;12.012;2023-02-18T01:01:42;99393.25;;;4.46;100.00
19600;BME280;9947;57.722;12.012;2023-02-18T01:04:09;99403.50;;;4.40;100.00
19600;BME280;9947;57.722;12.012;2023-02-18T01:06:49;99414.66;;;4.33;100.00
19600;BME280;9947;57.722;12.012;2023-02-18T01:09:16;99417.22;;;4.35;100.00
19600;BME280;9947;57.722;12.012;2023-02-18T01:11:54;99418.47;;;4.42;100.00
19600;BME280;9947;57.722;12.012;2023-02-18T01:14:21;99430.47;;;4.37;100.00
19600;BME280;9947;57.722;12.012;2023-02-18T01:16:54;99442.72;;;4.28;100.00
19600;BME280;9947;57.722;12.012;2023-02-18T01:19:21;99450.94;;;4.38;100.00
19600;BME280;9947;57.722;12.012;2023-02-18T01:22:02;99463.88;;;4.31;100.00
19600;BME280;9947;57.722;12.012;2023-02-18T01:24:35;99456.41;;;4.23;100.00
19600;BME280;9947;57.722;12.012;2023-02-18T01:27:09;99476.84;;;4.24;100.00
19600;BME280;9947;57.722;12.012;2023-02-18T01:29:39;99485.28;;;4.31;100.00
19600;BME280;9947;57.722;12.012;2023-02-18T01:32:13;99497.94;;;4.29;100.00
19600;BME280;9947;57.722;12.012;2023-02-18T01:34:40;99497.19;;;4.27;100.00
19600;BME280;9947;57.722;12.012;2023-02-18T01:37:13;99499.97;;;4.25;100.00
19600;BME280;9947;57.722;12.012;2023-02-18T01:39:40;99505.53;;;4.22;100.00
19600;BME280;9947;57.722;12.012;2023-02-18T01:42:19;99515.16;;;4.25;100.00
19600;BME280;9947;57.722;12.012;2023-02-18T01:44:53;99523.19;;;4.25;100.00
19600;BME280;9947;57.722;12.012;2023-02-18T01:47:27;99531.66;;;4.19;100.00
19600;BME280;9947;57.722;12.012;2023-02-18T01:49:58;99538.06;;;4.29;100.00
19600;BME280;9947;57.722;12.012;2023-02-18T01:52:32;99546.50;;;4.23;100.00
19600;BME280;9947;57.722;12.012;2023-02-18T01:55:06;99548.84;;;4.15;100.00
19600;BME280;9947;57.722;12.012;2023-02-18T01:57:40;99553.78;;;4.21;100.00
19600;BME280;9947;57.722;12.012;2023-02-18T02:00:10;99572.72;;;4.18;100.00
19600;BME280;9947;57.722;12.012;2023-02-18T02:02:41;99563.75;;;4.19;100.00
19600;BME280;9947;57.722;12.012;2023-02-18T02:05:15;99582.31;;;4.08;100.00
19600;BME280;9947;57.722;12.012;2023-02-18T02:07:51;99576.00;;;4.09;100.00
19600;BME280;9947;57.722;12.012;2023-02-18T02:10:19;99584.41;;;4.17;100.00
19600;BME280;9947;57.722;12.012;2023-02-18T02:12:58;99589.81;;;4.02;100.00
19600;BME280;9947;57.722;12.012;2023-02-18T02:15:33;99595.06;;;4.04;100.00
19600;BME280;9947;57.722;12.012;2023-02-18T02:18:34;99595.06;;;4.04;100.00
19600;BME280;9947;57.722;12.012;2023-02-18T02:27:50;99627.78;;;4.08;100.00
19600;BME280;9947;57.722;12.012;2023-02-18T02:31:06;99623.72;;;4.02;100.00
19600;BME280;9947;57.722;12.012;2023-02-18T02:36:50;99618.78;;;3.96;99.66
19600;BME280;9947;57.722;12.012;2023-02-18T02:39:30;99625.09;;;3.95;98.55
19600;BME280;9947;57.722;12.012;2023-02-18T02:42:16;99635.03;;;3.93;99.61
19600;BME280;9947;57.722;12.012;2023-02-18T02:44:53;99645.44;;;3.97;97.48
19600;BME280;9947;57.722;12.012;2023-02-18T02:47:34;99633.88;;;3.97;100.00
19600;BME280;9947;57.722;12.012;2023-02-18T02:50:09;99627.31;;;3.88;100.00
19600;BME280;9947;57.722;12.012;2023-02-18T02:52:51;99646.69;;;3.92;100.00
19600;BME280;9947;57.722;12.012;2023-02-18T02:55:25;99648.91;;;3.85;100.00
19600;BME280;9947;57.722;12.012;2023-02-18T02:57:58;99652.28;;;3.75;100.00
19600;BME280;9947;57.722;12.012;2023-02-18T03:00:37;99662.78;;;3.78;100.00
19600;BME280;9947;57.722;12.012;2023-02-18T03:03:30;99660.22;;;3.76;100.00
19600;BME280;9947;57.722;12.012;2023-02-18T03:06:18;99652.09;;;3.78;100.00
19600;BME280;9947;57.722;12.012;2023-02-18T03:09:03;99662.69;;;3.79;100.00
19600;BME280;9947;57.722;12.012;2023-02-18T03:11:45;99666.41;;;3.77;100.00
19600;BME280;9947;57.722;12.012;2023-02-18T03:14:27;99675.84;;;3.82;100.00
19600;BME280;9947;57.722;12.012;2023-02-18T03:16:58;99665.75;;;3.73;100.00
19600;BME280;9947;57.722;12.012;2023-02-18T03:19:39;99670.69;;;3.79;100.00
19600;BME280;9947;57.722;12.012;2023-02-18T03:22:19;99669.19;;;3.75;100.00
19600;BME280;9947;57.722;12.012;2023-02-18T03:24:50;99677.97;;;3.77;100.00
19600;BME280;9947;57.722;12.012;2023-02-18T03:27:28;99679.88;;;3.75;100.00
19600;BME280;9947;57.722;12.012;2023-02-18T03:29:59;99686.53;;;3.82;100.00
19600;BME280;9947;57.722;12.012;2023-02-18T03:32:34;99685.78;;;3.80;100.00
19600;BME280;9947;57.722;12.012;2023-02-18T03:35:16;99685.44;;;3.72;100.00
19600;BME280;9947;57.722;12.012;2023-02-18T03:38:00;99692.13;;;3.65;100.00
19600;BME280;9947;57.722;12.012;2023-02-18T03:40:30;99687.66;;;3.65;100.00
19600;BME280;9947;57.722;12.012;2023-02-18T03:43:04;99693.25;;;3.61;100.00
19600;BME280;9947;57.722;12.012;2023-02-18T03:45:31;99684.91;;;3.53;100.00
19600;BME280;9947;57.722;12.012;2023-02-18T03:48:05;99703.03;;;3.48;100.00
19600;BME280;9947;57.722;12.012;2023-02-18T03:50:32;99704.97;;;3.46;100.00
19600;BME280;9947;57.722;12.012;2023-02-18T03:53:05;99707.63;;;3.46;100.00
19600;BME280;9947;57.722;12.012;2023-02-18T03:55:33;99718.63;;;3.41;100.00
19600;BME280;9947;57.722;12.012;2023-02-18T03:58:07;99722.69;;;3.47;100.00
19600;BME280;9947;57.722;12.012;2023-02-18T04:00:34;99721.56;;;3.36;100.00
19600;BME280;9947;57.722;12.012;2023-02-18T04:03:10;99720.88;;;3.47;100.00
19600;BME280;9947;57.722;12.012;2023-02-18T04:05:37;99729.75;;;3.48;100.00
19600;BME280;9947;57.722;12.012;2023-02-18T04:08:10;99734.06;;;3.50;100.00
19600;BME280;9947;57.722;12.012;2023-02-18T04:10:38;99726.34;;;3.46;100.00
19600;BME280;9947;57.722;12.012;2023-02-18T04:13:12;99729.56;;;3.36;100.00
19600;BME280;9947;57.722;12.012;2023-02-18T04:15:39;99731.38;;;3.36;100.00
19600;BME280;9947;57.722;12.012;2023-02-18T04:18:13;99732.94;;;3.40;100.00
19600;BME280;9947;57.722;12.012;2023-02-18T04:20:46;99731.22;;;3.39;100.00
19600;BME280;9947;57.722;12.012;2023-02-18T04:23:20;99727.59;;;3.40;100.00
19600;BME280;9947;57.722;12.012;2023-02-18T04:25:48;99748.09;;;3.39;100.00
19600;BME280;9947;57.722;12.012;2023-02-18T04:28:29;99737.13;;;3.44;100.00
19600;BME280;9947;57.722;12.012;2023-02-18T04:30:56;99755.31;;;3.37;100.00
19600;BME280;9947;57.722;12.012;2023-02-18T04:33:29;99755.41;;;3.36;100.00
19600;BME280;9947;57.722;12.012;2023-02-18T04:35:56;99752.84;;;3.34;100.00
19600;BME280;9947;57.722;12.012;2023-02-18T04:38:30;99767.16;;;3.33;100.00
19600;BME280;9947;57.722;12.012;2023-02-18T04:41:05;99771.06;;;3.28;100.00
19600;BME280;9947;57.722;12.012;2023-02-18T04:43:32;99766.97;;;3.22;100.00
19600;BME280;9947;57.722;12.012;2023-02-18T04:46:05;99757.81;;;3.26;100.00
19600;BME280;9947;57.722;12.012;2023-02-18T04:48:32;99772.50;;;3.19;100.00
19600;BME280;9947;57.722;12.012;2023-02-18T04:51:05;99772.50;;;3.19;100.00
19600;BME280;9947;57.722;12.012;2023-02-18T04:53:38;99770.22;;;3.27;100.00
19600;BME280;9947;57.722;12.012;2023-02-18T04:56:06;99763.06;;;3.28;100.00
19600;BME280;9947;57.722;12.012;2023-02-18T04:58:40;99762.41;;;3.24;100.00
19600;BME280;9947;57.722;12.012;2023-02-18T05:01:13;99762.88;;;3.31;100.00
19600;BME280;9947;57.722;12.012;2023-02-18T05:03:46;99763.19;;;3.40;100.00
19600;BME280;9947;57.722;12.012;2023-02-18T05:06:19;99757.84;;;3.40;100.00
19600;BME280;9947;57.722;12.012;2023-02-18T05:08:52;99767.06;;;3.35;100.00
19600;BME280;9947;57.722;12.012;2023-02-18T05:11:20;99771.34;;;3.37;100.00
19600;BME280;9947;57.722;12.012;2023-02-18T05:13:54;99770.91;;;3.45;100.00
19600;BME280;9947;57.722;12.012;2023-02-18T05:16:22;99775.09;;;3.49;100.00
19600;BME280;9947;57.722;12.012;2023-02-18T05:18:55;99763.84;;;3.44;100.00
19600;BME280;9947;57.722;12.012;2023-02-18T05:21:22;99769.75;;;3.49;100.00
19600;BME280;9947;57.722;12.012;2023-02-18T05:24:03;99756.13;;;3.39;100.00
19600;BME280;9947;57.722;12.012;2023-02-18T05:26:38;99766.22;;;3.34;100.00
19600;BME280;9947;57.722;12.012;2023-02-18T05:29:06;99760.41;;;3.28;100.00
19600;BME280;9947;57.722;12.012;2023-02-18T05:31:39;99761.44;;;3.25;100.00
19600;BME280;9947;57.722;12.012;2023-02-18T05:34:13;99764.50;;;3.33;100.00
19600;BME280;9947;57.722;12.012;2023-02-18T05:36:46;99763.81;;;3.30;100.00
19600;BME280;9947;57.722;12.012;2023-02-18T05:39:13;99764.78;;;3.29;100.00
19600;BME280;9947;57.722;12.012;2023-02-18T05:41:47;99762.41;;;3.24;100.00
19600;BME280;9947;57.722;12.012;2023-02-18T05:44:14;99765.63;;;3.29;100.00
19600;BME280;9947;57.722;12.012;2023-02-18T05:47:05;99763.06;;;3.28;100.00
19600;BME280;9947;57.722;12.012;2023-02-18T05:49:40;99765.94;;;3.25;100.00
19600;BME280;9947;57.722;12.012;2023-02-18T05:52:15;99775.75;;;3.24;100.00
19600;BME280;9947;57.722;12.012;2023-02-18T05:54:42;99775.56;;;3.27;100.00
19600;BME280;9947;57.722;12.012;2023-02-18T05:57:17;99772.31;;;3.22;100.00
19600;BME280;9947;57.722;12.012;2023-02-18T05:59:44;99782.91;;;3.24;100.00
19600;BME280;9947;57.722;12.012;2023-02-18T06:02:18;99774.22;;;3.20;100.00
19600;BME280;9947;57.722;12.012;2023-02-18T06:04:45;99777.84;;;3.19;100.00
19600;BME280;9947;57.722;12.012;2023-02-18T06:07:18;99772.69;;;3.30;100.00
19600;BME280;9947;57.722;12.012;2023-02-18T06:09:45;99773.75;;;3.28;100.00
19600;BME280;9947;57.722;12.012;2023-02-18T06:12:20;99781.28;;;3.21;100.00
19600;BME280;9947;57.722;12.012;2023-02-18T06:14:47;99775.38;;;3.16;100.00
19600;BME280;9947;57.722;12.012;2023-02-18T06:17:21;99784.06;;;3.20;100.00
19600;BME280;9947;57.722;12.012;2023-02-18T06:19:48;99777.47;;;3.25;100.00
19600;BME280;9947;57.722;12.012;2023-02-18T06:22:21;99785.97;;;3.32;100.00
19600;BME280;9947;57.722;12.012;2023-02-18T06:24:48;99784.25;;;3.31;100.00
19600;BME280;9947;57.722;12.012;2023-02-18T06:27:22;99790.63;;;3.28;100.00
19600;BME280;9947;57.722;12.012;2023-02-18T06:29:56;99781.56;;;3.31;100.00
19600;BME280;9947;57.722;12.012;2023-02-18T06:32:29;99788.81;;;3.29;100.00
19600;BME280;9947;57.722;12.012;2023-02-18T06:34:56;99784.53;;;3.26;100.00
19600;BME280;9947;57.722;12.012;2023-02-18T06:37:23;99795.41;;;3.23;100.00
19600;BME280;9947;57.722;12.012;2023-02-18T06:39:56;99797.31;;;3.21;100.00
19600;BME280;9947;57.722;12.012;2023-02-18T06:42:37;99803.50;;;3.22;100.00
19600;BME280;9947;57.722;12.012;2023-02-18T06:45:05;99798.16;;;3.22;100.00
19600;BME280;9947;57.722;12.012;2023-02-18T06:47:38;99791.19;;;3.33;100.00
19600;BME280;9947;57.722;12.012;2023-02-18T06:50:06;99793.78;;;3.35;100.00
19600;BME280;9947;57.722;12.012;2023-02-18T06:52:39;99789.69;;;3.29;100.00
19600;BME280;9947;57.722;12.012;2023-02-18T06:55:07;99796.25;;;3.38;100.00
19600;BME280;9947;57.722;12.012;2023-02-18T06:57:42;99791.97;;;3.35;100.00
19600;BME280;9947;57.722;12.012;2023-02-18T07:00:10;99796.00;;;3.43;100.00
19600;BME280;9947;57.722;12.012;2023-02-18T07:02:43;99798.56;;;3.44;100.00
19600;BME280;9947;57.722;12.012;2023-02-18T07:05:10;99799.63;;;3.42;100.00
19600;BME280;9947;57.722;12.012;2023-02-18T07:07:44;99797.22;;;3.37;100.00
19600;BME280;9947;57.722;12.012;2023-02-18T07:10:11;99808.59;;;3.40;100.00
19600;BME280;9947;57.722;12.012;2023-02-18T07:12:49;99804.19;;;3.39;100.00
19600;BME280;9947;57.722;12.012;2023-02-18T07:15:16;99814.94;;;3.38;100.00
19600;BME280;9947;57.722;12.012;2023-02-18T07:17:51;99808.50;;;3.42;100.00
19600;BME280;9947;57.722;12.012;2023-02-18T07:20:25;99812.13;;;3.41;100.00
19600;BME280;9947;57.722;12.012;2023-02-18T07:22:58;99809.59;;;3.38;100.00
19600;BME280;9947;57.722;12.012;2023-02-18T07:25:25;99810.66;;;3.35;100.00
19600;BME280;9947;57.722;12.012;2023-02-18T07:28:00;99806.88;;;3.39;100.00
19600;BME280;9947;57.722;12.012;2023-02-18T07:30:29;99803.25;;;3.40;100.00
19600;BME280;9947;57.722;12.012;2023-02-18T07:33:04;99811.06;;;3.44;100.00
19600;BME280;9947;57.722;12.012;2023-02-18T07:35:31;99810.13;;;3.45;100.00
19600;BME280;9947;57.722;12.012;2023-02-18T07:38:05;99807.16;;;3.49;100.00
19600;BME280;9947;57.722;12.012;2023-02-18T07:40:32;99808.00;;;3.50;100.00
19600;BME280;9947;57.722;12.012;2023-02-18T07:43:06;99812.41;;;3.51;100.00
19600;BME280;9947;57.722;12.012;2023-02-18T07:45:37;99814.22;;;3.50;100.00
19600;BME280;9947;57.722;12.012;2023-02-18T07:48:10;99832.63;;;3.55;100.00
19600;BME280;9947;57.722;12.012;2023-02-18T07:50:38;99827.75;;;3.61;100.00
19600;BME280;9947;57.722;12.012;2023-02-18T07:53:13;99822.31;;;3.63;100.00
19600;BME280;9947;57.722;12.012;2023-02-18T07:55:41;99824.72;;;3.67;100.00
19600;BME280;9947;57.722;12.012;2023-02-18T07:58:20;99830.53;;;3.74;100.00
19600;BME280;9947;57.722;12.012;2023-02-18T08:00:47;99827.56;;;3.79;100.00
19600;BME280;9947;57.722;12.012;2023-02-18T08:03:22;99822.00;;;3.82;100.00
19600;BME280;9947;57.722;12.012;2023-02-18T08:05:50;99820.00;;;3.85;100.00
19600;BME280;9947;57.722;12.012;2023-02-18T08:08:25;99819.81;;;3.88;100.00
19600;BME280;9947;57.722;12.012;2023-02-18T08:10:54;99820.59;;;3.90;100.00
19600;BME280;9947;57.722;12.012;2023-02-18T08:13:29;99823.06;;;3.93;100.00
19600;BME280;9947;57.722;12.012;2023-02-18T08:15:57;99825.75;;;3.93;100.00
19600;BME280;9947;57.722;12.012;2023-02-18T08:18:37;99831.94;;;3.94;100.00
19600;BME280;9947;57.722;12.012;2023-02-18T08:21:12;99832.91;;;3.93;100.00
19600;BME280;9947;57.722;12.012;2023-02-18T08:23:46;99837.19;;;3.95;100.00
19600;BME280;9947;57.722;12.012;2023-02-18T08:26:20;99834.72;;;3.92;100.00
19600;BME280;9947;57.722;12.012;2023-02-18T08:28:49;99837.50;;;3.91;100.00
19600;BME280;9947;57.722;12.012;2023-02-18T08:31:24;99842.03;;;3.89;100.00
19600;BME280;9947;57.722;12.012;2023-02-18T08:33:58;99844.16;;;3.84;100.00
19600;BME280;9947;57.722;12.012;2023-02-18T08:36:34;99841.50;;;3.84;100.00
19600;BME280;9947;57.722;12.012;2023-02-18T08:39:08;99850.38;;;3.84;100.00
19600;BME280;9947;57.722;12.012;2023-02-18T08:41:41;99844.81;;;3.87;100.00
19600;BME280;9947;57.722;12.012;2023-02-18T08:44:09;99850.75;;;3.92;100.00
19600;BME280;9947;57.722;12.012;2023-02-18T08:46:43;99840.72;;;3.96;100.00
19600;BME280;9947;57.722;12.012;2023-02-18T08:49:19;99849.22;;;4.02;100.00
19600;BME280;9947;57.722;12.012;2023-02-18T08:51:52;99850.63;;;4.08;100.00
19600;BME280;9947;57.722;12.012;2023-02-18T08:54:19;99851.19;;;4.13;100.00
19600;BME280;9947;57.722;12.012;2023-02-18T08:56:46;99852.03;;;4.14;100.00
19600;BME280;9947;57.722;12.012;2023-02-18T08:59:21;99848.13;;;4.19;100.00
19600;BME280;9947;57.722;12.012;2023-02-18T09:01:52;99850.41;;;4.25;100.00
19600;BME280;9947;57.722;12.012;2023-02-18T09:04:25;99854.00;;;4.39;100.00
19600;BME280;9947;57.722;12.012;2023-02-18T09:06:58;99850.25;;;4.41;100.00
19600;BME280;9947;57.722;12.012;2023-02-18T09:09:31;99853.97;;;4.53;100.00
19600;BME280;9947;57.722;12.012;2023-02-18T09:11:58;99855.81;;;4.65;100.00
19600;BME280;9947;57.722;12.012;2023-02-18T09:14:33;99862.13;;;4.64;100.00
19600;BME280;9947;57.722;12.012;2023-02-18T09:17:00;99863.69;;;4.81;100.00
19600;BME280;9947;57.722;12.012;2023-02-18T09:19:40;99851.16;;;4.81;100.00
19600;BME280;9947;57.722;12.012;2023-02-18T09:22:13;99866.59;;;4.90;100.00
19600;BME280;9947;57.722;12.012;2023-02-18T09:24:54;99872.00;;;5.03;100.00
19600;BME280;9947;57.722;12.012;2023-02-18T09:27:27;99871.69;;;4.95;100.00
19600;BME280;9947;57.722;12.012;2023-02-18T09:29:55;99863.31;;;5.00;100.00
19600;BME280;9947;57.722;12.012;2023-02-18T09:32:29;99875.75;;;5.01;100.00
19600;BME280;9947;57.722;12.012;2023-02-18T09:34:56;99865.03;;;5.01;100.00
19600;BME280;9947;57.722;12.012;2023-02-18T09:37:30;99874.03;;;5.00;100.00
19600;BME280;9947;57.722;12.012;2023-02-18T09:39:57;99870.72;;;4.96;100.00
19600;BME280;9947;57.722;12.012;2023-02-18T09:42:32;99866.88;;;5.00;100.00
19600;BME280;9947;57.722;12.012;2023-02-18T09:45:04;99875.28;;;4.94;100.00
19600;BME280;9947;57.722;12.012;2023-02-18T09:47:42;99890.00;;;5.01;100.00
19600;BME280;9947;57.722;12.012;2023-02-18T09:50:18;99885.41;;;5.03;100.00
19600;BME280;9947;57.722;12.012;2023-02-18T09:52:52;99887.44;;;5.00;100.00
19600;BME280;9947;57.722;12.012;2023-02-18T09:55:22;99893.84;;;4.97;100.00
19600;BME280;9947;57.722;12.012;2023-02-18T09:58:01;99890.50;;;4.93;100.00
19600;BME280;9947;57.722;12.012;2023-02-18T10:00:38;99899.09;;;4.99;100.00
19600;BME280;9947;57.722;12.012;2023-02-18T10:03:15;99902.06;;;4.94;100.00
19600;BME280;9947;57.722;12.012;2023-02-18T10:05:50;99902.75;;;4.98;100.00
19600;BME280;9947;57.722;12.012;2023-02-18T10:08:29;99898.91;;;5.02;100.00
19600;BME280;9947;57.722;12.012;2023-02-18T10:11:09;99901.25;;;5.06;100.00
19600;BME280;9947;57.722;12.012;2023-02-18T10:13:39;99887.97;;;5.05;100.00
19600;BME280;9947;57.722;12.012;2023-02-18T10:16:17;99891.19;;;5.10;100.00
19600;BME280;9947;57.722;12.012;2023-02-18T10:18:48;99895.84;;;5.33;100.00
19600;BME280;9947;57.722;12.012;2023-02-18T10:21:26;99891.78;;;5.40;100.00
19600;BME280;9947;57.722;12.012;2023-02-18T10:24:15;99886.63;;;5.37;100.00
19600;BME280;9947;57.722;12.012;2023-02-18T10:26:51;99881.16;;;5.39;100.00
19600;BME280;9947;57.722;12.012;2023-02-18T10:29:19;99878.72;;;5.36;100.00
19600;BME280;9947;57.722;12.012;2023-02-18T10:31:56;99876.34;;;5.44;100.00
19600;BME280;9947;57.722;12.012;2023-02-18T10:34:38;99880.88;;;5.56;100.00
19600;BME280;9947;57.722;12.012;2023-02-18T10:37:29;99878.81;;;5.72;100.00
19600;BME280;9947;57.722;12.012;2023-02-18T10:40:08;99884.72;;;5.52;100.00
19600;BME280;9947;57.722;12.012;2023-02-18T10:42:52;99877.88;;;5.48;100.00
19600;BME280;9947;57.722;12.012;2023-02-18T10:45:28;99880.63;;;5.46;100.00
19600;BME280;9947;57.722;12.012;2023-02-18T10:48:18;99877.75;;;5.49;100.00
19600;BME280;9947;57.722;12.012;2023-02-18T10:50:49;99885.06;;;5.47;100.00
19600;BME280;9947;57.722;12.012;2023-02-18T10:53:30;99889.03;;;5.54;100.00
19600;BME280;9947;57.722;12.012;2023-02-18T10:55:59;99886.88;;;5.47;100.00
19600;BME280;9947;57.722;12.012;2023-02-18T10:58:42;99884.72;;;5.39;100.00
19600;BME280;9947;57.722;12.012;2023-02-18T11:01:19;99880.84;;;5.31;100.00
19600;BME280;9947;57.722;12.012;2023-02-18T11:04:06;99893.72;;;5.25;100.00
19600;BME280;9947;57.722;12.012;2023-02-18T11:06:42;99895.22;;;5.30;100.00
19600;BME280;9947;57.722;12.012;2023-02-18T11:09:27;99897.13;;;5.28;100.00
19600;BME280;9947;57.722;12.012;2023-02-18T11:12:02;99899.06;;;5.25;100.00
19600;BME280;9947;57.722;12.012;2023-02-18T11:14:40;99905.06;;;5.29;100.00
19600;BME280;9947;57.722;12.012;2023-02-18T11:17:19;99902.06;;;5.21;100.00
19600;BME280;9947;57.722;12.012;2023-02-18T11:19:58;99901.97;;;5.22;100.00
19600;BME280;9947;57.722;12.012;2023-02-18T11:22:34;99902.72;;;5.24;100.00
19600;BME280;9947;57.722;12.012;2023-02-18T11:25:20;99902.81;;;5.36;100.00
19600;BME280;9947;57.722;12.012;2023-02-18T11:27:59;99903.69;;;5.36;100.00
19600;BME280;9947;57.722;12.012;2023-02-18T11:30:30;99894.88;;;5.21;99.94
19600;BME280;9947;57.722;12.012;2023-02-18T11:33:08;99902.19;;;5.32;100.00
19600;BME280;9947;57.722;12.012;2023-02-18T11:35:36;99891.34;;;5.34;100.00
19600;BME280;9947;57.722;12.012;2023-02-18T11:38:22;99890.81;;;5.29;100.00
19600;BME280;9947;57.722;12.012;2023-02-18T11:41:05;99892.44;;;5.44;100.00
19600;BME280;9947;57.722;12.012;2023-02-18T11:43:48;99893.75;;;5.51;99.71
19600;BME280;9947;57.722;12.012;2023-02-18T11:46:18;99884.41;;;5.56;100.00
19600;BME280;9947;57.722;12.012;2023-02-18T11:48:53;99896.44;;;5.51;99.71
19600;BME280;9947;57.722;12.012;2023-02-18T11:51:24;99901.13;;;5.47;99.23
19600;BME280;9947;57.722;12.012;2023-02-18T11:54:02;99898.00;;;5.41;100.00
19600;BME280;9947;57.722;12.012;2023-02-18T11:56:32;99892.53;;;5.42;100.00
19600;BME280;9947;57.722;12.012;2023-02-18T11:59:12;99887.50;;;5.38;98.79
19600;BME280;9947;57.722;12.012;2023-02-18T12:01:48;99880.53;;;5.35;100.00
19600;BME280;9947;57.722;12.012;2023-02-18T12:04:17;99891.69;;;5.42;100.00
19600;BME280;9947;57.722;12.012;2023-02-18T12:07:00;99887.28;;;5.41;95.57
19600;BME280;9947;57.722;12.012;2023-02-18T12:09:43;99889.97;;;5.28;91.44
19600;BME280;9947;57.722;12.012;2023-02-18T12:12:24;99886.75;;;5.23;92.78
19600;BME280;9947;57.722;12.012;2023-02-18T12:14:56;99889.31;;;5.24;94.37
19600;BME280;9947;57.722;12.012;2023-02-18T12:17:42;99898.53;;;5.20;95.08
19600;BME280;9947;57.722;12.012;2023-02-18T12:20:46;99898.22;;;5.25;94.35
19600;BME280;9947;57.722;12.012;2023-02-18T12:23:34;99901.63;;;5.27;94.45
19600;BME280;9947;57.722;12.012;2023-02-18T12:26:12;99889.31;;;5.24;93.82
19600;BME280;9947;57.722;12.012;2023-02-18T12:29:00;99898.72;;;5.17;92.53
19600;BME280;9947;57.722;12.012;2023-02-18T12:31:52;99895.25;;;5.03;89.63
19600;BME280;9947;57.722;12.012;2023-02-18T12:34:45;99890.59;;;4.92;90.98
19600;BME280;9947;57.722;12.012;2023-02-18T12:37:46;99889.09;;;4.88;90.00
19600;BME280;9947;57.722;12.012;2023-02-18T12:43:44;99894.34;;;4.89;92.15
19600;BME280;9947;57.722;12.012;2023-02-18T12:46:40;99894.34;;;4.89;92.54
19600;BME280;9947;57.722;12.012;2023-02-18T12:49:36;99894.13;;;4.92;93.93
19600;BME280;9947;57.722;12.012;2023-02-18T12:52:24;99884.97;;;4.97;92.58
19600;BME280;9947;57.722;12.012;2023-02-18T12:55:42;99900.81;;;5.00;92.02
19600;BME280;9947;57.722;12.012;2023-02-18T12:58:28;99895.56;;;4.98;92.64
19600;BME280;9947;57.722;12.012;2023-02-18T13:01:11;99893.44;;;5.03;93.46
19600;BME280;9947;57.722;12.012;2023-02-18T13:04:08;99901.69;;;5.00;91.48
19600;BME280;9947;57.722;12.012;2023-02-18T13:07:18;99897.50;;;4.96;90.50
19600;BME280;9947;57.722;12.012;2023-02-18T13:10:03;99900.34;;;4.93;91.09
19600;BME280;9947;57.722;12.012;2023-02-18T13:12:44;99894.94;;;4.94;91.82
19600;BME280;9947;57.722;12.012;2023-02-18T13:15:17;99898.47;;;4.95;91.07
19600;BME280;9947;57.722;12.012;2023-02-18T13:17:56;99891.28;;;4.95;91.02
19600;BME280;9947;57.722;12.012;2023-02-18T13:20:28;99892.16;;;4.96;89.94
19600;BME280;9947;57.722;12.012;2023-02-18T13:23:07;99888.13;;;4.89;88.54
19600;BME280;9947;57.722;12.012;2023-02-18T13:25:39;99901.31;;;4.92;89.69
19600;BME280;9947;57.722;12.012;2023-02-18T13:28:19;99899.59;;;4.91;90.39
19600;BME280;9947;57.722;12.012;2023-02-18T13:30:52;99897.78;;;4.91;90.25
19600;BME280;9947;57.722;12.012;2023-02-18T13:33:43;99895.19;;;4.90;89.72
19600;BME280;9947;57.722;12.012;2023-02-18T13:36:31;99892.19;;;4.82;90.19
19600;BME280;9947;57.722;12.012;2023-02-18T13:39:07;99899.06;;;4.86;90.55
19600;BME280;9947;57.722;12.012;2023-02-18T13:42:09;99907.94;;;4.86;90.66
19600;BME280;9947;57.722;12.012;2023-02-18T13:45:02;99914.91;;;4.89;90.73
19600;BME280;9947;57.722;12.012;2023-02-18T13:47:37;99905.06;;;4.89;90.56
19600;BME280;9947;57.722;12.012;2023-02-18T13:50:38;99906.03;;;4.88;91.21
19600;BME280;9947;57.722;12.012;2023-02-18T13:53:21;99915.31;;;4.83;89.88
19600;BME280;9947;57.722;12.012;2023-02-18T13:55:59;99915.44;;;4.81;90.04
19600;BME280;9947;57.722;12.012;2023-02-18T13:58:31;99911.91;;;4.81;90.96